ロサンゼルス の空港の天気 - METARとTAF

ロサンゼルス国際空港 ( KLAX / LAX ) - アメリカ カリフォルニア州ロサンゼルス
飛行場実況気象(Metar)
観測時間06/03 04:53 PDT (06/03 11:53 UTC)
風向・風速西南西 3m/s
視程10km以上
天気現象
少しの雲 雲底高度 120m
少しの雲 雲底高度 4570m
全天の8割程度の雲 雲底高度 6100m
気温17.2℃
湿度78%
気圧1012.1hPa
METARKLAX 031153Z 24006KT 10SM FEW004 FEW150 BKN200 17/13 A2990 RMK AO2 SLP121 T01720133 10194 20167 56012 $
過去の天気等 Google飛行場航空写真 Wunderground天気予報

過去48時間のMETAR

飛行場予報(TAF)
発表時間: 6/03 04:37 PDT (6/03 11:37 UTC)
予報対象時間: 3日5時 PDT ~ 4日11時 PDT
風向・風速西 3m/s
視程10km以上
全天の4割程度の雲 雲底高度 4570m
全天の8割程度の雲 雲底高度 6100m
3日12時 PDT から
風向・風速西 6m/s
視程10km以上
全天の4割程度の雲 雲底高度 4570m
全天の4割程度の雲 雲底高度 6100m
3日21時 PDT から
風向・風速西 3m/s
視程10km以上
全天の4割程度の雲 雲底高度 4570m
全天の4割程度の雲 雲底高度 6100m
4日2時 PDT から
風向・風速不定 2m/s
視程10km以上
天気現象もや
全天を覆う雲 雲底高度 210m
4日7時 PDT から
風向・風速南 3m/s
視程10km以上
天気現象もや
全天を覆う雲 雲底高度 370m
4日10時 PDT から
風向・風速西南西 3m/s
視程10km以上
全天の8割程度の雲 雲底高度 550m
KLAX 031137Z 0312/0418 27005KT P6SM SCT150 BKN200
FM031900 26012KT P6SM SCT150 SCT200
FM040400 26005KT P6SM SCT150 SCT200
FM040900 VRB03KT 6SM BR OVC007
FM041400 18006KT 6SM BR OVC012
FM041700 24006KT P6SM BKN018